Weather at Fundo la Marqueseña Airport

Public forecast

Using degrees Celsius for public forecast. Weather courtesy of forecast.io.

Closest aviation weather report (METAR) to Fundo la Marqueseña Airport

Report is more than 6 hours old.

Closest report is Guanare Airport, 19.9 nm (36.9 km) NE.

2024/06/24 21:03 (retrieved 11 hours ago)

SVGU 242103Z AUTO ///01KT NCD ///// Q1013

Closest aviation forecast (TAF) to Fundo la Marqueseña Airport

Forecast is more than 12 hours old.

Closest forecast is La Chinita International Airport, 143.8 nm (266.3 km) NW.

2024/06/24 06:01 (retrieved 1 day ago)

TAF SVMC 250400Z 2506/2606 11008KT 9999 SCT016 SCT100 TX34/2519Z TN25/2608Z TEMPO 2504/2508 16008KT 9000-DZ SCT016 BKN080